createdAt,value
2023-02-19T00:01:55.398Z,100825.44
2023-02-19T00:04:23.801Z,100825.56
2023-02-19T00:06:51.296Z,100839.09
2023-02-19T00:09:20.129Z,100843.69
2023-02-19T00:11:48.484Z,100839.66
2023-02-19T00:14:18.961Z,100850.97
2023-02-19T00:16:46.471Z,100803.53
2023-02-19T00:19:17.768Z,100855.66
2023-02-19T00:21:45.916Z,100805.94
2023-02-19T00:24:14.865Z,100861.47
2023-02-19T00:26:43.419Z,100853.19
2023-02-19T00:29:17.093Z,100861.88
2023-02-19T00:31:45.766Z,100851.84
2023-02-19T00:34:13.984Z,100862.88
2023-02-19T00:36:42.615Z,100853.13
2023-02-19T00:39:14.129Z,100853.56
2023-02-19T00:41:41.853Z,100859.75
2023-02-19T00:44:11.271Z,100871.97
2023-02-19T00:46:42.118Z,100801.53
2023-02-19T00:49:16.238Z,100859.22
2023-02-19T00:51:44.103Z,100857.97
2023-02-19T00:54:12.390Z,100859.75
2023-02-19T00:56:39.898Z,100856.28
2023-02-19T00:59:07.846Z,100852.12
2023-02-19T01:01:35.389Z,100858.41
2023-02-19T01:04:06.209Z,100855.78
2023-02-19T01:06:35.356Z,100858.81
2023-02-19T01:09:04.933Z,100857.56
2023-02-19T01:11:32.618Z,100859.03
2023-02-19T01:14:01.682Z,100868.34
2023-02-19T01:16:30.995Z,100865.94
2023-02-19T01:18:59.109Z,100869.78
2023-02-19T01:21:28.134Z,100865.62
2023-02-19T01:23:56.254Z,100874.09
2023-02-19T01:26:28.480Z,100865.53
2023-02-19T01:28:57.576Z,100870.97
2023-02-19T01:31:25.601Z,100857.37
2023-02-19T01:33:56.593Z,100867.28
2023-02-19T01:36:24.819Z,100846.47
2023-02-19T01:38:52.304Z,100859.47
2023-02-19T01:41:23.555Z,100855.28
2023-02-19T01:44:09.426Z,100849.84
2023-02-19T01:46:41.944Z,100846.50
2023-02-19T01:49:20.678Z,100852.12
2023-02-19T01:51:54.374Z,100850.37
2023-02-19T01:54:25.198Z,100871.34
2023-02-19T01:56:53.555Z,100873.12
2023-02-19T01:59:21.582Z,100863.31
2023-02-19T02:01:49.837Z,100870.59
2023-02-19T02:04:18.864Z,100870.91
2023-02-19T02:06:54.555Z,100865.81
2023-02-19T02:09:45.616Z,100853.03
2023-02-19T02:12:13.555Z,100807.03
2023-02-19T02:14:45.444Z,100863.50
2023-02-19T02:17:31.767Z,100866.22
2023-02-19T02:20:22.799Z,100860.03
2023-02-19T02:23:05.426Z,100852.75
2023-02-19T02:25:52.401Z,100867.37
2023-02-19T02:29:05.141Z,100863.81
2023-02-19T02:31:42.244Z,100848.78
2023-02-19T02:34:27.768Z,100838.53
2023-02-19T02:36:57.375Z,100832.47
2023-02-19T02:39:28.005Z,100779.97
2023-02-19T02:42:17.213Z,100844.28
2023-02-19T02:45:04.760Z,100846.25
2023-02-19T02:47:42.839Z,100840.91
2023-02-19T02:50:18.862Z,100873.28
2023-02-19T02:53:08.931Z,100878.75
2023-02-19T02:55:42.447Z,100876.34
2023-02-19T02:58:12.983Z,100870.56
2023-02-19T03:01:06.182Z,100877.56
2023-02-19T03:03:36.509Z,100875.44
2023-02-19T03:06:06.776Z,100876.47
2023-02-19T03:08:39.051Z,100885.16
2023-02-19T03:11:29.130Z,100886.09
2023-02-19T03:14:31.804Z,100890.47
2023-02-19T03:17:25.531Z,100874.34
2023-02-19T03:19:58.684Z,100879.84
2023-02-19T03:22:31.008Z,100884.34
2023-02-19T03:25:23.687Z,100892.66
2023-02-19T03:27:52.473Z,100891.81
2023-02-19T03:30:23.445Z,100890.53
2023-02-19T03:32:58.035Z,100899.28
2023-02-19T03:35:35.256Z,100918.19
2023-02-19T03:38:13.292Z,100920.50
2023-02-19T03:41:05.007Z,100915.94
2023-02-19T03:43:47.490Z,100908.66
2023-02-19T03:46:25.370Z,100903.31
2023-02-19T03:49:01.726Z,100906.59
2023-02-19T03:51:42.653Z,100842.53
2023-02-19T03:54:17.738Z,100907.44
2023-02-19T03:57:03.526Z,100911.09
2023-02-19T04:00:24.035Z,100912.25
2023-02-19T04:03:20.109Z,100907.56
2023-02-19T04:05:53.827Z,100907.47
2023-02-19T04:08:24.323Z,100923.78
2023-02-19T04:10:55.326Z,100925.16
2023-02-19T04:13:30.482Z,100884.75
2023-02-19T04:16:03.534Z,100936.34
2023-02-19T04:18:38.348Z,100889.53
2023-02-19T04:21:08.252Z,100934.34
2023-02-19T04:23:40.361Z,100932.00
2023-02-19T04:26:09.281Z,100933.47
2023-02-19T04:28:38.193Z,100933.25
2023-02-19T04:31:06.568Z,100950.09
2023-02-19T04:33:34.474Z,100932.03
2023-02-19T04:36:02.641Z,100930.06
2023-02-19T04:38:30.545Z,100941.97
2023-02-19T04:40:58.006Z,100937.28
2023-02-19T04:43:25.734Z,100940.09
2023-02-19T04:45:53.251Z,100924.13
2023-02-19T04:48:20.735Z,100927.12
2023-02-19T04:50:48.496Z,100927.34
2023-02-19T04:53:16.650Z,100926.28
2023-02-19T04:55:44.081Z,100912.16
2023-02-19T04:58:11.951Z,100915.91
2023-02-19T05:00:39.562Z,100904.41
2023-02-19T05:03:07.089Z,100861.84
2023-02-19T05:05:35.653Z,100911.81
2023-02-19T05:08:03.151Z,100914.16
2023-02-19T05:10:30.777Z,100917.47
2023-02-19T05:12:58.530Z,100910.47
2023-02-19T05:15:25.971Z,100903.34
2023-02-19T05:17:53.455Z,100912.75
2023-02-19T05:20:22.991Z,100908.56
2023-02-19T05:22:51.583Z,100909.00
2023-02-19T05:25:19.087Z,100908.16
2023-02-19T05:27:46.934Z,100901.22
2023-02-19T05:30:16.346Z,100897.69
2023-02-19T05:32:43.868Z,100896.62
2023-02-19T05:35:11.548Z,100902.56
2023-02-19T05:37:39.112Z,100903.06
2023-02-19T05:40:06.660Z,100853.75
2023-02-19T05:42:36.363Z,100899.31
2023-02-19T05:45:04.106Z,100895.75
2023-02-19T05:47:31.562Z,100890.91
2023-02-19T05:49:59.398Z,100894.47
2023-02-19T05:52:27.454Z,100893.50
2023-02-19T05:54:54.974Z,100893.41
2023-02-19T05:57:22.853Z,100903.69
2023-02-19T05:59:50.967Z,100902.63
2023-02-19T06:02:18.456Z,100896.09
2023-02-19T06:04:46.201Z,100894.09
2023-02-19T06:07:13.586Z,100892.06
2023-02-19T06:09:42.489Z,100900.56
2023-02-19T06:12:10.176Z,100899.62
2023-02-19T06:14:37.607Z,100888.69
2023-02-19T06:17:05.049Z,100850.09
2023-02-19T06:19:32.897Z,100898.25
2023-02-19T06:22:00.478Z,100895.53
2023-02-19T06:24:27.991Z,100891.72
2023-02-19T06:26:55.723Z,100892.13
2023-02-19T06:29:24.342Z,100897.03
2023-02-19T06:31:51.921Z,100899.19
2023-02-19T06:34:19.703Z,100844.66
2023-02-19T06:36:49.204Z,100899.16
2023-02-19T06:39:16.698Z,100886.75
2023-02-19T06:41:44.515Z,100847.47
2023-02-19T06:44:11.982Z,100894.87
2023-02-19T06:46:39.711Z,100889.16
2023-02-19T06:49:07.739Z,100892.31
2023-02-19T06:51:35.204Z,100885.16
2023-02-19T06:54:02.649Z,100884.31
2023-02-19T06:56:37.598Z,100830.50
2023-02-19T06:59:08.199Z,100876.19
2023-02-19T07:01:37.295Z,100871.44
2023-02-19T07:04:05.340Z,100865.47
2023-02-19T07:06:33.551Z,100867.41
2023-02-19T07:09:02.494Z,100853.56
2023-02-19T07:11:32.765Z,100866.22
2023-02-19T07:14:02.964Z,100816.81
2023-02-19T07:16:31.117Z,100816.09
2023-02-19T07:18:59.961Z,100865.97
2023-02-19T07:21:29.751Z,100862.25
2023-02-19T07:23:58.432Z,100849.31
2023-02-19T07:26:25.897Z,100791.59
2023-02-19T07:28:53.769Z,100837.78
2023-02-19T07:31:23.734Z,100790.16
2023-02-19T07:33:51.922Z,100834.31
2023-02-19T07:36:20.549Z,100825.38
2023-02-19T07:38:55.303Z,100824.41
2023-02-19T07:41:24.264Z,100824.84
2023-02-19T07:43:53.467Z,100790.34
2023-02-19T07:46:21.580Z,100816.78
2023-02-19T07:48:49.045Z,100822.59
2023-02-19T07:51:19.369Z,100826.69
2023-02-19T07:53:50.169Z,100827.78
2023-02-19T07:56:20.597Z,100762.84
2023-02-19T07:58:48.133Z,100816.31
2023-02-19T08:01:18.835Z,100818.12
2023-02-19T08:03:48.179Z,100821.09
2023-02-19T08:06:16.918Z,100821.22
2023-02-19T08:08:44.545Z,100823.72
2023-02-19T08:11:30.863Z,100812.19
2023-02-19T08:13:58.690Z,100819.69
2023-02-19T08:16:42.233Z,100825.38
2023-02-19T08:19:10.557Z,100803.03
2023-02-19T08:21:38.275Z,100830.75
2023-02-19T08:24:06.081Z,100788.88
2023-02-19T08:26:34.629Z,100832.69
2023-02-19T08:29:04.002Z,100782.03
2023-02-19T08:31:32.675Z,100832.97
2023-02-19T08:34:00.264Z,100824.59
2023-02-19T08:36:28.108Z,100815.44
2023-02-19T08:38:55.998Z,100809.44
2023-02-19T08:41:23.536Z,100788.72
2023-02-19T08:43:51.307Z,100783.84
2023-02-19T08:46:18.816Z,100726.25
2023-02-19T08:48:46.241Z,100768.94
2023-02-19T08:51:14.313Z,100767.62
2023-02-19T08:53:42.071Z,100770.53
2023-02-19T08:56:12.660Z,100728.28
2023-02-19T08:58:40.770Z,100729.53
2023-02-19T09:01:14.528Z,100784.69
2023-02-19T09:03:42.863Z,100782.41
2023-02-19T09:06:16.765Z,100776.56
2023-02-19T09:08:44.706Z,100783.47
2023-02-19T09:11:12.776Z,100766.47
2023-02-19T09:13:40.800Z,100797.75
2023-02-19T09:16:09.057Z,100766.59
2023-02-19T09:18:36.635Z,100774.09
2023-02-19T09:21:05.912Z,100793.72
2023-02-19T09:23:35.152Z,100784.00
2023-02-19T09:26:06.732Z,100786.63
2023-02-19T09:28:34.700Z,100779.56
2023-02-19T09:31:06.438Z,100747.78
2023-02-19T09:33:34.529Z,100730.09
2023-02-19T09:36:02.455Z,100777.81
2023-02-19T09:38:31.058Z,100780.22
2023-02-19T09:41:05.642Z,100796.16
2023-02-19T09:43:33.963Z,100807.50
2023-02-19T09:46:06.909Z,100801.66
2023-02-19T09:48:34.434Z,100818.50
2023-02-19T09:51:03.290Z,100822.69
2023-02-19T09:53:41.902Z,100826.47
2023-02-19T09:56:10.022Z,100839.41
2023-02-19T09:58:48.805Z,100846.31
2023-02-19T10:01:18.469Z,100842.69
2023-02-19T10:03:48.621Z,100795.06
2023-02-19T10:06:23.756Z,100826.56
2023-02-19T10:08:55.135Z,100766.78
2023-02-19T10:11:25.821Z,100764.72
2023-02-19T10:14:09.426Z,100793.69
2023-02-19T10:16:42.371Z,100785.53
2023-02-19T10:19:14.307Z,100777.53
2023-02-19T10:21:42.672Z,100768.91
2023-02-19T10:24:19.872Z,100777.94
2023-02-19T10:26:47.899Z,100779.97
2023-02-19T10:29:15.651Z,100791.34
2023-02-19T10:31:43.195Z,100739.44
2023-02-19T10:34:20.636Z,100778.00
2023-02-19T10:36:53.052Z,100774.12
2023-02-19T10:39:21.708Z,100717.00
2023-02-19T10:41:51.278Z,100748.28
2023-02-19T10:44:24.230Z,100735.50
2023-02-19T10:46:55.385Z,100734.66
2023-02-19T10:49:33.999Z,100730.34
2023-02-19T10:52:25.922Z,100723.53
2023-02-19T10:54:57.052Z,100725.13
2023-02-19T10:57:33.987Z,100677.69
2023-02-19T11:00:22.654Z,100715.56
2023-02-19T11:02:50.933Z,100714.16
2023-02-19T11:05:20.140Z,100693.50
2023-02-19T11:07:47.716Z,100687.41
2023-02-19T11:10:33.586Z,100678.00
2023-02-19T11:13:03.971Z,100630.63
2023-02-19T11:15:33.547Z,100662.88
2023-02-19T11:18:13.180Z,100668.78
2023-02-19T11:20:58.915Z,100625.56
2023-02-19T11:23:38.542Z,100678.22
2023-02-19T11:26:15.945Z,100695.06
2023-02-19T11:28:44.564Z,100664.44
2023-02-19T11:31:36.191Z,100696.00
2023-02-19T11:34:29.816Z,100721.53
2023-02-19T11:37:17.954Z,100670.38
2023-02-19T11:39:48.395Z,100708.63
2023-02-19T11:42:31.697Z,100715.13
2023-02-19T11:45:23.014Z,100716.84
2023-02-19T11:48:12.868Z,100703.16
2023-02-19T11:50:53.164Z,100701.53
2023-02-19T11:53:37.247Z,100707.22
2023-02-19T11:56:16.660Z,100706.09
2023-02-19T11:59:05.092Z,100704.97
2023-02-19T12:01:59.814Z,100702.31
2023-02-19T12:04:55.317Z,100696.91
2023-02-19T12:07:41.711Z,100694.09
2023-02-19T12:10:28.443Z,100685.38
2023-02-19T12:13:20.874Z,100692.59
2023-02-19T12:16:15.931Z,100689.59
2023-02-19T12:19:33.502Z,100697.94
2023-02-19T12:22:01.418Z,100692.06
2023-02-19T12:25:03.096Z,100629.06
2023-02-19T12:27:42.765Z,100691.53
2023-02-19T12:30:35.896Z,100690.06
2023-02-19T12:33:29.003Z,100685.44
2023-02-19T12:36:05.767Z,100672.88
2023-02-19T12:38:44.390Z,100620.34
2023-02-19T12:41:17.968Z,100677.97
2023-02-19T12:44:18.447Z,100672.97
2023-02-19T12:46:52.966Z,100664.78
2023-02-19T12:49:37.828Z,100668.41
2023-02-19T12:52:18.170Z,100663.13
2023-02-19T12:54:50.233Z,100670.25
2023-02-19T12:57:34.866Z,100649.78
2023-02-19T13:00:30.623Z,100681.03
2023-02-19T13:03:05.282Z,100660.16
2023-02-19T13:05:35.955Z,100666.03
2023-02-19T13:08:10.588Z,100663.16
2023-02-19T13:10:51.400Z,100623.50
2023-02-19T13:13:35.036Z,100659.88
2023-02-19T13:16:10.305Z,100659.25
2023-02-19T13:18:49.986Z,100662.75
2023-02-19T13:21:40.410Z,100664.34
2023-02-19T13:24:14.002Z,100656.41
2023-02-19T13:26:49.265Z,100652.88
2023-02-19T13:29:51.349Z,100619.25
2023-02-19T13:32:48.214Z,100638.06
2023-02-19T13:35:22.119Z,100628.50
2023-02-19T13:37:51.610Z,100623.72
2023-02-19T13:40:30.707Z,100618.41
2023-02-19T13:43:05.093Z,100613.94
2023-02-19T13:45:43.859Z,100607.63
2023-02-19T13:48:26.579Z,100618.47
2023-02-19T13:51:26.090Z,100580.72
2023-02-19T13:53:57.132Z,100623.13
2023-02-19T13:56:36.619Z,100631.62
2023-02-19T13:59:10.697Z,100618.72
2023-02-19T14:01:53.224Z,100611.59
2023-02-19T14:04:39.862Z,100555.53
2023-02-19T14:07:07.607Z,100593.50
2023-02-19T14:09:41.290Z,100611.16
2023-02-19T14:12:15.077Z,100607.72
2023-02-19T14:14:51.678Z,100602.44
2023-02-19T14:17:27.041Z,100601.28
2023-02-19T14:19:56.143Z,100609.87
2023-02-19T14:22:45.746Z,100605.31
2023-02-19T14:25:29.109Z,100609.63
2023-02-19T14:28:24.319Z,100608.12
2023-02-19T14:30:55.778Z,100600.38
2023-02-19T14:33:30.428Z,100600.84
2023-02-19T14:36:16.221Z,100585.16
2023-02-19T14:39:04.121Z,100540.88
2023-02-19T14:41:37.079Z,100567.13
2023-02-19T14:44:24.968Z,100569.94
2023-02-19T14:46:59.063Z,100586.13
2023-02-19T14:49:45.810Z,100531.75
2023-02-19T14:52:28.390Z,100581.47
2023-02-19T14:54:58.017Z,100569.84
2023-02-19T14:57:47.370Z,100563.91
2023-02-19T15:00:26.525Z,100559.59
2023-02-19T15:02:57.571Z,100559.41
2023-02-19T15:05:28.186Z,100557.91
2023-02-19T15:08:02.325Z,100534.38
2023-02-19T15:10:32.946Z,100570.00
2023-02-19T15:13:06.820Z,100576.75
2023-02-19T15:15:40.147Z,100581.41
2023-02-19T15:18:08.017Z,100585.03
2023-02-19T15:20:37.993Z,100594.94
2023-02-19T15:23:07.674Z,100585.50
2023-02-19T15:25:39.465Z,100599.16
2023-02-19T15:28:42.341Z,100598.28
2023-02-19T15:31:15.751Z,100611.34
2023-02-19T15:33:51.434Z,100622.38
2023-02-19T15:36:29.185Z,100623.66
2023-02-19T15:39:02.233Z,100589.87
2023-02-19T15:41:35.065Z,100644.66
2023-02-19T15:44:20.258Z,100653.38
2023-02-19T15:46:48.583Z,100654.97
2023-02-19T15:49:48.270Z,100660.78
2023-02-19T15:52:43.822Z,100656.12
2023-02-19T15:55:38.956Z,100665.03
2023-02-19T15:58:19.749Z,100670.72
2023-02-19T16:00:50.414Z,100689.19
2023-02-19T16:03:21.789Z,100690.47
2023-02-19T16:06:14.062Z,100695.91
2023-02-19T16:09:02.086Z,100700.34
2023-02-19T16:11:47.568Z,100692.56
2023-02-19T16:14:18.335Z,100701.87
2023-02-19T16:16:50.732Z,100723.09
2023-02-19T16:19:24.741Z,100747.84
2023-02-19T16:21:53.981Z,100763.06
2023-02-19T16:24:35.218Z,100737.91
2023-02-19T16:27:04.593Z,100767.91
2023-02-19T16:29:34.285Z,100767.12
2023-02-19T16:32:05.964Z,100767.72
2023-02-19T16:34:48.670Z,100770.25
2023-02-19T16:37:37.738Z,100765.81
2023-02-19T16:40:08.466Z,100772.09
2023-02-19T16:42:59.996Z,100743.94
2023-02-19T16:45:27.944Z,100767.38
2023-02-19T16:47:55.808Z,100775.03
2023-02-19T16:50:25.363Z,100741.84
2023-02-19T16:52:56.214Z,100769.16
2023-02-19T16:55:24.622Z,100776.22
2023-02-19T16:57:52.917Z,100774.44
2023-02-19T17:00:24.724Z,100745.72
2023-02-19T17:02:57.346Z,100786.09
2023-02-19T17:05:27.972Z,100791.91
2023-02-19T17:07:55.609Z,100797.56
2023-02-19T17:10:25.809Z,100796.63
2023-02-19T17:12:55.648Z,100797.44
2023-02-19T17:15:23.459Z,100800.47
2023-02-19T17:17:52.845Z,100816.03
2023-02-19T17:20:27.419Z,100778.09
2023-02-19T17:22:55.934Z,100836.09
2023-02-19T17:25:23.904Z,100827.63
2023-02-19T17:27:51.650Z,100783.13
2023-02-19T17:30:31.441Z,100830.47
2023-02-19T17:32:59.600Z,100835.84
2023-02-19T17:35:27.824Z,100788.28
2023-02-19T17:37:56.610Z,100841.03
2023-02-19T17:40:33.760Z,100848.38
2023-02-19T17:43:02.004Z,100846.56
2023-02-19T17:45:30.227Z,100855.88
2023-02-19T17:47:58.838Z,100810.50
2023-02-19T17:50:30.747Z,100848.84
2023-02-19T17:52:58.888Z,100866.44
2023-02-19T17:55:26.704Z,100866.19
2023-02-19T17:57:54.572Z,100820.75
2023-02-19T18:00:25.678Z,100881.88
2023-02-19T18:02:53.798Z,100877.50
2023-02-19T18:05:22.553Z,100884.84
2023-02-19T18:07:50.694Z,100868.88
2023-02-19T18:10:20.477Z,100878.56
2023-02-19T18:12:48.265Z,100890.19
2023-02-19T18:15:19.362Z,100845.56
2023-02-19T18:17:47.612Z,100892.41
2023-02-19T18:20:22.094Z,100835.19
2023-02-19T18:22:50.661Z,100843.63
2023-02-19T18:25:19.396Z,100906.56
2023-02-19T18:27:47.252Z,100902.16
2023-02-19T18:30:18.360Z,100907.66
2023-02-19T18:32:50.107Z,100900.03
2023-02-19T18:35:20.317Z,100904.06
2023-02-19T18:37:52.868Z,100901.66
2023-02-19T18:40:25.976Z,100912.44
2023-02-19T18:43:00.910Z,100863.44
2023-02-19T18:45:29.738Z,100912.00
2023-02-19T18:47:57.490Z,100928.50
2023-02-19T18:50:25.151Z,100930.12
2023-02-19T18:52:53.534Z,100912.50
2023-02-19T18:55:21.532Z,100944.28
2023-02-19T18:57:49.399Z,100934.28
2023-02-19T19:00:22.935Z,100949.28
2023-02-19T19:02:51.514Z,100938.13
2023-02-19T19:05:23.941Z,100969.19
2023-02-19T19:07:56.497Z,100968.41
2023-02-19T19:10:26.215Z,100955.00
2023-02-19T19:12:54.597Z,100917.47
2023-02-19T19:15:22.569Z,100929.88
2023-02-19T19:17:51.256Z,100955.66
2023-02-19T19:20:20.659Z,100957.94
2023-02-19T19:22:52.697Z,100960.34
2023-02-19T19:25:21.792Z,100965.03
2023-02-19T19:27:52.822Z,100975.16
2023-02-19T19:30:22.519Z,100966.81
2023-02-19T19:32:52.693Z,100967.28
2023-02-19T19:35:21.510Z,100971.34
2023-02-19T19:37:49.642Z,100977.34
2023-02-19T19:40:18.409Z,100981.63
2023-02-19T19:42:46.845Z,100987.72
2023-02-19T19:45:15.940Z,100965.53
2023-02-19T19:47:43.643Z,100949.37
2023-02-19T19:50:13.208Z,100913.25
2023-02-19T19:52:40.929Z,100952.78
2023-02-19T19:55:09.515Z,100948.63
2023-02-19T19:57:40.327Z,100953.53
2023-02-19T20:00:12.767Z,100946.34
2023-02-19T20:02:42.705Z,100946.84
2023-02-19T20:05:10.695Z,100954.12
2023-02-19T20:07:38.884Z,100954.63
2023-02-19T20:10:08.255Z,100962.37
2023-02-19T20:12:36.497Z,100968.38
2023-02-19T20:15:04.754Z,100970.50
2023-02-19T20:17:32.904Z,100966.22
2023-02-19T20:20:00.857Z,100980.44
2023-02-19T20:22:28.650Z,100977.91
2023-02-19T20:24:56.765Z,100984.59
2023-02-19T20:27:24.783Z,100966.44
2023-02-19T20:29:53.334Z,100987.22
2023-02-19T20:32:21.217Z,100987.22
2023-02-19T20:34:49.070Z,101001.16
2023-02-19T20:37:16.561Z,100963.06
2023-02-19T20:39:45.480Z,100998.91
2023-02-19T20:42:16.437Z,101002.75
2023-02-19T20:44:45.097Z,101003.91
2023-02-19T20:47:12.810Z,101012.25
2023-02-19T20:49:46.055Z,100972.69
2023-02-19T20:52:16.355Z,101020.59
2023-02-19T20:54:44.495Z,100972.34
2023-02-19T20:57:14.078Z,101023.09
2023-02-19T20:59:44.239Z,101025.47
2023-02-19T21:02:24.673Z,101032.25
2023-02-19T21:04:53.169Z,101033.66
2023-02-19T21:07:20.884Z,101035.97
2023-02-19T21:09:48.599Z,101036.22
2023-02-19T21:12:17.106Z,101046.31
2023-02-19T21:14:45.180Z,101035.19
2023-02-19T21:17:13.121Z,101037.09
2023-02-19T21:19:41.661Z,101054.75
2023-02-19T21:22:09.502Z,101054.78
2023-02-19T21:24:37.244Z,101064.94
2023-02-19T21:27:05.314Z,101060.16
2023-02-19T21:29:33.041Z,101076.31
2023-02-19T21:32:01.253Z,101089.75
2023-02-19T21:34:29.974Z,101080.19
2023-02-19T21:36:57.670Z,101084.31
2023-02-19T21:39:26.227Z,101096.50
2023-02-19T21:41:54.675Z,101051.97
2023-02-19T21:44:23.857Z,101052.81
2023-02-19T21:46:51.725Z,101095.47
2023-02-19T21:49:19.618Z,101063.00
2023-02-19T21:51:49.661Z,101088.03
2023-02-19T21:54:26.777Z,101111.28
2023-02-19T21:56:54.697Z,101082.56
2023-02-19T21:59:23.011Z,101113.47
2023-02-19T22:01:51.036Z,101104.03
2023-02-19T22:04:21.761Z,101105.94
2023-02-19T22:06:49.209Z,101124.16
2023-02-19T22:09:16.812Z,101141.66
2023-02-19T22:11:45.122Z,101145.34
2023-02-19T22:14:12.695Z,101157.47
2023-02-19T22:16:40.133Z,101147.53
2023-02-19T22:19:14.158Z,101151.41
2023-02-19T22:21:44.364Z,101156.91
2023-02-19T22:24:20.915Z,101167.19
2023-02-19T22:26:50.661Z,101177.00
2023-02-19T22:29:19.300Z,101127.50
2023-02-19T22:31:47.626Z,101172.91
2023-02-19T22:34:16.154Z,101187.41
2023-02-19T22:36:44.271Z,101188.56
2023-02-19T22:39:24.187Z,101181.31
2023-02-19T22:41:53.277Z,101140.09
2023-02-19T22:44:20.715Z,101194.09
2023-02-19T22:46:56.118Z,101200.28
2023-02-19T22:49:24.797Z,101149.37
2023-02-19T22:51:57.489Z,101198.56
2023-02-19T22:54:27.062Z,101221.97
2023-02-19T22:56:54.985Z,101214.13
2023-02-19T22:59:23.045Z,101193.19
2023-02-19T23:01:51.255Z,101203.59
2023-02-19T23:04:21.167Z,101208.91
2023-02-19T23:06:49.404Z,101223.75
2023-02-19T23:09:23.849Z,101226.00
2023-02-19T23:11:52.397Z,101220.28
2023-02-19T23:14:22.151Z,101182.87
2023-02-19T23:16:49.628Z,101238.19
2023-02-19T23:19:17.191Z,101234.00
2023-02-19T23:21:45.808Z,101145.37
2023-02-19T23:24:14.185Z,101234.00
2023-02-19T23:26:46.134Z,101237.00
2023-02-19T23:29:19.950Z,101252.94
2023-02-19T23:31:47.793Z,101255.00
2023-02-19T23:34:16.166Z,101254.53
2023-02-19T23:36:45.838Z,101261.44
2023-02-19T23:39:16.187Z,101278.91
2023-02-19T23:41:52.247Z,101272.38
2023-02-19T23:44:21.299Z,101281.88
2023-02-19T23:46:49.831Z,101284.66
2023-02-19T23:49:18.224Z,101297.28
2023-02-19T23:51:46.285Z,101310.88
2023-02-19T23:54:14.137Z,101302.19
2023-02-19T23:56:41.652Z,101304.91
2023-02-19T23:59:09.104Z,101302.38
